Virtual LH

Virtual LH. There's no better way to fly
Since 2013.



AIRPORT MAP

METAR AND TAF INFORMATION

METAR FOR GMTT
ADDS - METARS form results

(0550 UTC 26 March 2019)
Data provider http://aviationweather.gov/metar/data/
 
METAR text: GMTT 260530Z 10020G30KT 9999 FEW016 SCT200 17/09 Q1008 NOSIG
Conditions at: GMTT (TANGIER/BOUKHALF, MA) observed 0530 UTC 26 March 2019
Temperature: 17.0°C (63°F)
Dewpoint: 9.0°C (48°F) [RH = 59%]
Pressure (altimeter): 29.76 inches Hg (1008.0 mb)
Winds: from the E (100 degrees) at 23 MPH (20 knots; 10.3 m/s)
gusting to 34 MPH (30 knots; 15.4 m/s)
Visibility: 6 or more miles (10+ km)
Ceiling: at least 12,000 feet AGL
Clouds: few clouds at 1600 feet AGL
scattered clouds at 20000 feet AGL
Weather: no significant weather observed at this time

METAR text: GMTT 260500Z 10024KT 9999 FEW016 SCT200 17/10 Q1008 NOSIG
Conditions at: GMTT (TANGIER/BOUKHALF, MA) observed 0500 UTC 26 March 2019
Temperature: 17.0°C (63°F)
Dewpoint: 10.0°C (50°F) [RH = 63%]
Pressure (altimeter): 29.76 inches Hg (1008.0 mb)
Winds: from the E (100 degrees) at 28 MPH (24 knots; 12.3 m/s)
Visibility: 6 or more miles (10+ km)
Ceiling: at least 12,000 feet AGL
Clouds: few clouds at 1600 feet AGL
scattered clouds at 20000 feet AGL
Weather: no significant weather observed at this time

Forecast for: GMTT (TANGIER/BOUKHALF, MA)
Text: TAF GMTT 252300Z 2600/2706 10025G40KT 9999 FEW016 SCT200
Forecast period: 0000 UTC 26 March 2019 to 0600 UTC 27 March 2019
Forecast type: FROM: standard forecast or significant change
Winds: from the E (100 degrees) at 29 MPH (25 knots; 12.9 m/s)
gusting to 46 MPH (40 knots; 20.6 m/s)
Visibility: 6 or more miles 10+ km)
Ceiling: at least 12,000 feet AGL
Clouds: few clouds at 1600 feet AGL
scattered clouds at 20000 feet AGL
Weather: no significant weather forecast for this period

RUNWAY INFORMATION

Runway 07 Runway length 6562 ft Runway width 98 ft
Runway elevation 0 ft Runway displaced threshold 0 ft Runway heading 69
Runway 25 Runway length 6562 ft Runway width 98 ft
Runway elevation 0 ft Runway displaced threshold 0 ft Runway heading 249
Runway 10 Runway length 11483 ft Runway width 148 ft
Runway elevation 20 ft Runway displaced threshold 0 ft Runway heading 96
Runway 28 Runway length 11483 ft Runway width 148 ft
Runway elevation 62 ft Runway displaced threshold 1640 ft Runway heading 276

AIRPORT FREQUENCIES

Type APP Name TANGER APP Frequency 121.2 MHZ
Type TWR Name TANGER TWR Frequency 119.5 MHZ

AIRPORT NEAR NAVIGATION AIDS

Type VOR-DME Name Tanger Frequency 115900 KHZ